AXM5117 WBKK-WMKK
Flight info
| Callsign | AXM5117 |
|---|---|
| Flight time | N/A |
| Altitude | 38000 |
| Route | EGENU2F VIDIP M758 IDSEL Y335 PADLI Y343 SAROX SAROX1J |
| Aircraft | A20N/M-SDE2E3FGHIRWXY/LB1 |
Departure
| Time | 2026-04-20 09:49 |
|---|---|
| Airport | Kota Kinabalu International Airport (WBKK) |
Arrival
| Time | N/A |
|---|---|
| Airport | Kuala Lumpur International Airport (WMKK) |
| Time | Latitude | Longitude | Altitude | Speed | Heading |
|---|---|---|---|---|---|
| 2026-04-20 09:15 | 5.92568 | 116.05017 | 29 ft | 0 kts | 113° |
| 2026-04-20 09:38 | 5.92569 | 116.05015 | 28 ft | 1 kts | 113° |
| 2026-04-20 09:39 | 5.92572 | 116.05008 | 28 ft | 1 kts | 113° |
| 2026-04-20 09:39 | 5.92575 | 116.05001 | 28 ft | 1 kts | 113° |
| 2026-04-20 09:39 | 5.92578 | 116.04994 | 28 ft | 1 kts | 117° |
| 2026-04-20 09:39 | 5.92582 | 116.04987 | 28 ft | 1 kts | 123° |
| 2026-04-20 09:40 | 5.92586 | 116.04981 | 28 ft | 1 kts | 130° |
| 2026-04-20 09:40 | 5.92591 | 116.04975 | 28 ft | 1 kts | 140° |
| 2026-04-20 09:40 | 5.92597 | 116.04970 | 28 ft | 1 kts | 151° |
| 2026-04-20 09:40 | 5.92604 | 116.04967 | 28 ft | 1 kts | 161° |
| 2026-04-20 09:41 | 5.92611 | 116.04964 | 28 ft | 1 kts | 172° |
| 2026-04-20 09:41 | 5.92618 | 116.04963 | 28 ft | 1 kts | 182° |
| 2026-04-20 09:41 | 5.92622 | 116.04963 | 28 ft | 0 kts | 187° |
| 2026-04-20 09:44 | 5.92613 | 116.04962 | 28 ft | 3 kts | 187° |
| 2026-04-20 09:44 | 5.92583 | 116.04952 | 28 ft | 6 kts | 202° |
| 2026-04-20 09:44 | 5.92531 | 116.04930 | 28 ft | 10 kts | 204° |
| 2026-04-20 09:45 | 5.92465 | 116.04901 | 28 ft | 13 kts | 204° |
| 2026-04-20 09:45 | 5.92404 | 116.04858 | 28 ft | 11 kts | 253° |
| 2026-04-20 09:45 | 5.92408 | 116.04783 | 28 ft | 13 kts | 272° |
| 2026-04-20 09:45 | 5.92350 | 116.04724 | 28 ft | 14 kts | 200° |
| 2026-04-20 09:46 | 5.92252 | 116.04687 | 28 ft | 16 kts | 201° |
| 2026-04-20 09:46 | 5.92141 | 116.04637 | 28 ft | 18 kts | 198° |
| 2026-04-20 09:46 | 5.92018 | 116.04582 | 28 ft | 21 kts | 205° |
| 2026-04-20 09:46 | 5.91890 | 116.04530 | 28 ft | 15 kts | 201° |
| 2026-04-20 09:47 | 5.91813 | 116.04495 | 28 ft | 14 kts | 213° |
| 2026-04-20 09:47 | 5.91792 | 116.04419 | 28 ft | 3 kts | 291° |
| 2026-04-20 09:47 | 5.91807 | 116.04389 | 28 ft | 6 kts | 295° |
| 2026-04-20 09:47 | 5.91828 | 116.04346 | 28 ft | 7 kts | 303° |
| 2026-04-20 09:48 | 5.91874 | 116.04334 | 28 ft | 8 kts | 15° |
| 2026-04-20 09:48 | 5.91977 | 116.04379 | 28 ft | 43 kts | 20° |
| 2026-04-20 09:48 | 5.92495 | 116.04597 | 28 ft | 116 kts | 23° |
| 2026-04-20 09:48 | 5.93378 | 116.04968 | 256 ft | 147 kts | 22° |
| 2026-04-20 09:49 | 5.94296 | 116.05355 | 1020 ft | 141 kts | 23° |
| 2026-04-20 09:49 | 5.95205 | 116.05728 | 1641 ft | 143 kts | 20° |
| 2026-04-20 09:49 | 5.96237 | 116.05913 | 2157 ft | 159 kts | 357° |
| 2026-04-20 09:49 | 5.97338 | 116.05576 | 2617 ft | 180 kts | 328° |
| 2026-04-20 09:50 | 5.98107 | 116.04783 | 2958 ft | 201 kts | 308° |
| 2026-04-20 09:50 | 5.98884 | 116.03697 | 3372 ft | 219 kts | 307° |
| 2026-04-20 09:50 | 5.99806 | 116.02374 | 3745 ft | 243 kts | 306° |
| 2026-04-20 09:50 | 6.00647 | 116.01164 | 4149 ft | 261 kts | 306° |
| 2026-04-20 09:51 | 6.01723 | 115.99630 | 4822 ft | 273 kts | 306° |
| 2026-04-20 09:51 | 6.02834 | 115.98057 | 5660 ft | 279 kts | 306° |
| 2026-04-20 09:51 | 6.03952 | 115.96434 | 6453 ft | 286 kts | 299° |
| 2026-04-20 09:51 | 6.04531 | 115.94534 | 7280 ft | 288 kts | 272° |
| 2026-04-20 09:52 | 6.04370 | 115.92879 | 7983 ft | 289 kts | 257° |
| 2026-04-20 09:52 | 6.03982 | 115.91093 | 8749 ft | 291 kts | 256° |
| 2026-04-20 09:52 | 6.03532 | 115.89101 | 9618 ft | 294 kts | 256° |
| 2026-04-20 09:52 | 6.03076 | 115.87075 | 10241 ft | 305 kts | 257° |
| 2026-04-20 09:53 | 6.02598 | 115.84916 | 10468 ft | 329 kts | 257° |
| 2026-04-20 09:53 | 6.02098 | 115.82625 | 10750 ft | 347 kts | 257° |
| 2026-04-20 09:53 | 6.01581 | 115.80236 | 11405 ft | 352 kts | 257° |
| 2026-04-20 09:53 | 6.01042 | 115.77822 | 12102 ft | 357 kts | 255° |
| 2026-04-20 09:54 | 6.00286 | 115.75640 | 12721 ft | 362 kts | 246° |
| 2026-04-20 09:54 | 5.99088 | 115.73401 | 13372 ft | 367 kts | 237° |
| 2026-04-20 09:54 | 5.97622 | 115.71289 | 13993 ft | 371 kts | 235° |
| 2026-04-20 09:54 | 5.96136 | 115.69150 | 14619 ft | 374 kts | 235° |
| 2026-04-20 09:55 | 5.94649 | 115.66997 | 15228 ft | 377 kts | 235° |
| 2026-04-20 09:55 | 5.93293 | 115.65030 | 15785 ft | 380 kts | 235° |
| 2026-04-20 09:55 | 5.91786 | 115.62843 | 16366 ft | 383 kts | 235° |
| 2026-04-20 09:55 | 5.90377 | 115.60798 | 16900 ft | 386 kts | 235° |
| 2026-04-20 09:56 | 5.88841 | 115.58571 | 17492 ft | 389 kts | 235° |
| 2026-04-20 09:56 | 5.87296 | 115.56330 | 18040 ft | 392 kts | 235° |
| 2026-04-20 09:56 | 5.85735 | 115.54067 | 18525 ft | 395 kts | 235° |
| 2026-04-20 09:56 | 5.84167 | 115.51794 | 19025 ft | 398 kts | 235° |
| 2026-04-20 09:57 | 5.82587 | 115.49505 | 19502 ft | 400 kts | 235° |
| 2026-04-20 09:57 | 5.80996 | 115.47200 | 19989 ft | 403 kts | 235° |
| 2026-04-20 09:57 | 5.79392 | 115.44877 | 20472 ft | 405 kts | 235° |
| 2026-04-20 09:57 | 5.77783 | 115.42546 | 20936 ft | 408 kts | 235° |
| 2026-04-20 09:58 | 5.76200 | 115.40167 | 21402 ft | 411 kts | 239° |
| 2026-04-20 09:58 | 5.74966 | 115.37790 | 21836 ft | 413 kts | 246° |
| 2026-04-20 09:58 | 5.74028 | 115.35323 | 22260 ft | 416 kts | 252° |
| 2026-04-20 09:58 | 5.73206 | 115.32528 | 22724 ft | 418 kts | 253° |
| 2026-04-20 09:59 | 5.72375 | 115.29720 | 23168 ft | 421 kts | 253° |
| 2026-04-20 09:59 | 5.71534 | 115.26901 | 23575 ft | 424 kts | 253° |
| 2026-04-20 09:59 | 5.70686 | 115.24066 | 23943 ft | 426 kts | 253° |